createdAt,value
2023-03-12T00:39:52.291Z,0.04
2023-03-12T00:40:52.266Z,0.20
2023-03-12T00:41:52.254Z,0.23
2023-03-12T00:42:52.238Z,0.26
2023-03-12T00:43:52.238Z,0.29
2023-03-12T00:44:52.213Z,0.26
2023-03-12T00:45:52.202Z,0.17
2023-03-12T00:46:52.265Z,0.04
2023-03-12T01:03:52.144Z,0.03
2023-03-12T01:04:51.961Z,0.07
2023-03-12T01:05:51.950Z,0.15
2023-03-12T01:06:51.937Z,0.21
2023-03-12T01:07:51.926Z,0.24
2023-03-12T01:08:51.913Z,0.23
2023-03-12T01:09:51.932Z,0.20
2023-03-12T01:10:51.889Z,0.17
2023-03-12T01:11:51.889Z,0.17
2023-03-12T01:12:51.865Z,0.14
2023-03-12T01:13:51.849Z,0.04
2023-03-12T01:14:51.846Z,0.02
2023-03-12T01:22:51.735Z,0.00
2023-03-12T01:25:51.727Z,0.00
2023-03-12T01:26:51.691Z,0.08
2023-03-12T01:27:51.675Z,0.13
2023-03-12T01:28:51.661Z,0.21
2023-03-12T01:29:51.654Z,0.23
2023-03-12T01:30:51.639Z,0.13
2023-03-12T01:31:51.727Z,0.11
2023-03-12T01:32:51.694Z,0.20
2023-03-12T01:33:51.600Z,0.18
2023-03-12T01:34:51.585Z,0.18
2023-03-12T01:35:51.728Z,0.20
2023-03-12T01:36:51.564Z,0.21
2023-03-12T01:37:51.546Z,0.20
2023-03-12T01:38:51.531Z,0.23
2023-03-12T01:39:51.520Z,0.31
2023-03-12T01:40:51.505Z,0.29
2023-03-12T01:41:51.524Z,0.35
2023-03-12T01:42:51.482Z,0.36
2023-03-12T01:43:51.468Z,0.31
2023-03-12T01:44:51.457Z,0.38
2023-03-12T01:45:51.474Z,0.39
2023-03-12T01:46:51.457Z,0.41
2023-03-12T01:47:51.417Z,0.47
2023-03-12T01:48:51.419Z,0.44
2023-03-12T01:49:51.393Z,0.47
2023-03-12T01:50:51.379Z,0.54
2023-03-12T01:51:51.368Z,0.61
2023-03-12T01:52:51.350Z,0.59
2023-03-12T01:53:51.341Z,0.68
2023-03-12T01:54:51.329Z,0.64
2023-03-12T01:55:51.315Z,0.64
2023-03-12T01:56:51.299Z,0.59
2023-03-12T01:57:51.316Z,0.54
2023-03-12T01:58:51.285Z,0.57
2023-03-12T01:59:51.263Z,0.69
2023-03-12T02:00:51.286Z,0.65
2023-03-12T02:01:51.239Z,0.69
2023-03-12T02:02:51.222Z,0.65
2023-03-12T02:03:51.296Z,0.60
2023-03-12T02:04:51.212Z,0.59
2023-03-12T02:05:51.195Z,0.54
2023-03-12T02:06:51.180Z,0.59
2023-03-12T02:07:51.164Z,0.64
2023-03-12T02:08:51.151Z,0.65
2023-03-12T02:09:51.137Z,0.71
2023-03-12T02:10:51.136Z,0.77
2023-03-12T02:11:51.112Z,0.72
2023-03-12T02:12:51.098Z,0.54
2023-03-12T02:13:51.116Z,0.56
2023-03-12T02:14:51.073Z,0.60
2023-03-12T02:15:51.063Z,0.59
2023-03-12T02:16:51.083Z,0.57
2023-03-12T02:17:51.041Z,0.61
2023-03-12T02:18:51.022Z,0.68
2023-03-12T02:19:51.014Z,0.82
2023-03-12T02:20:50.995Z,0.79
2023-03-12T02:21:50.986Z,0.86
2023-03-12T02:22:50.974Z,0.90
2023-03-12T02:23:50.968Z,0.96
2023-03-12T02:24:50.949Z,0.92
2023-03-12T02:25:50.936Z,0.78
2023-03-12T02:26:50.922Z,0.69
2023-03-12T02:27:50.911Z,0.41
2023-03-12T02:28:50.906Z,0.29
2023-03-12T02:29:50.910Z,0.21
2023-03-12T02:30:50.875Z,0.17
2023-03-12T02:31:50.903Z,0.17
2023-03-12T02:32:50.916Z,0.18
2023-03-12T02:33:50.837Z,0.23
2023-03-12T02:34:50.851Z,0.35
2023-03-12T02:35:50.820Z,0.41
2023-03-12T02:36:50.796Z,0.54
2023-03-12T02:37:50.785Z,0.54
2023-03-12T02:38:50.770Z,0.50
2023-03-12T02:39:50.760Z,0.38
2023-03-12T02:40:50.745Z,0.28
2023-03-12T02:41:50.735Z,0.21
2023-03-12T02:42:50.720Z,0.20
2023-03-12T02:43:50.709Z,0.21
2023-03-12T02:44:50.695Z,0.26
2023-03-12T02:45:50.743Z,0.24
2023-03-12T02:46:50.669Z,0.36
2023-03-12T02:47:50.659Z,0.42
2023-03-12T02:48:50.657Z,0.44
2023-03-12T02:49:50.642Z,0.46
2023-03-12T02:50:50.631Z,0.59
2023-03-12T02:51:50.608Z,0.65
2023-03-12T02:52:50.596Z,0.82
2023-03-12T02:53:50.583Z,0.92
2023-03-12T02:54:50.575Z,1.01
2023-03-12T02:55:50.556Z,1.07
2023-03-12T02:56:50.567Z,1.14
2023-03-12T02:57:50.531Z,1.11
2023-03-12T02:59:50.509Z,1.03
2023-03-12T03:00:50.500Z,0.93
2023-03-12T03:01:50.503Z,0.77
2023-03-12T03:02:50.471Z,0.69
2023-03-12T03:03:50.495Z,0.68
2023-03-12T03:04:50.445Z,0.64
2023-03-12T03:05:50.429Z,0.61
2023-03-12T03:06:50.430Z,0.56
2023-03-12T03:07:50.413Z,0.56
2023-03-12T03:08:50.396Z,0.53
2023-03-12T03:09:50.383Z,0.53
2023-03-12T03:10:50.371Z,0.57
2023-03-12T03:11:50.362Z,0.74
2023-03-12T03:12:50.357Z,0.89
2023-03-12T03:13:50.328Z,1.03
2023-03-12T03:14:50.317Z,1.13
2023-03-12T03:15:50.345Z,1.15
2023-03-12T03:16:50.308Z,1.26
2023-03-12T03:17:50.300Z,1.26
2023-03-12T03:18:50.278Z,1.15
2023-03-12T03:19:50.253Z,1.11
2023-03-12T03:20:50.242Z,1.04
2023-03-12T03:21:50.228Z,0.93
2023-03-12T03:22:50.218Z,0.92
2023-03-12T03:23:50.204Z,0.83
2023-03-12T03:24:50.194Z,0.79
2023-03-12T03:25:50.179Z,0.82
2023-03-12T03:26:50.185Z,0.75
2023-03-12T03:27:50.154Z,0.78
2023-03-12T03:28:50.170Z,0.71
2023-03-12T03:29:50.131Z,0.74
2023-03-12T03:30:50.152Z,0.74
2023-03-12T03:31:50.101Z,0.68
2023-03-12T03:32:50.181Z,0.71
2023-03-12T03:33:50.101Z,0.71
2023-03-12T03:34:50.068Z,0.79
2023-03-12T03:35:50.077Z,0.77
2023-03-12T03:36:50.047Z,0.78
2023-03-12T03:37:50.033Z,0.78
2023-03-12T03:38:50.021Z,0.77
2023-03-12T03:39:50.009Z,0.77
2023-03-12T03:40:49.988Z,0.79
2023-03-12T03:41:49.974Z,0.79
2023-03-12T03:42:49.966Z,0.78
2023-03-12T03:43:49.949Z,0.78
2023-03-12T03:44:49.936Z,0.82
2023-03-12T03:45:49.962Z,0.75
2023-03-12T03:46:49.940Z,0.68
2023-03-12T03:47:49.898Z,0.60
2023-03-12T03:48:49.886Z,0.59
2023-03-12T03:49:49.896Z,0.60
2023-03-12T03:50:49.861Z,0.64
2023-03-12T03:51:49.848Z,0.64
2023-03-12T03:52:49.832Z,0.68
2023-03-12T03:53:49.822Z,0.69
2023-03-12T03:54:49.808Z,0.74
2023-03-12T03:55:49.794Z,0.79
2023-03-12T03:56:49.788Z,0.87
2023-03-12T03:57:49.769Z,0.89
2023-03-12T03:58:49.761Z,0.95
2023-03-12T03:59:49.744Z,1.03
2023-03-12T04:00:49.748Z,1.05
2023-03-12T04:01:49.725Z,1.10
2023-03-12T04:02:49.708Z,1.15
2023-03-12T04:03:49.702Z,1.17
2023-03-12T04:04:49.687Z,1.21
2023-03-12T04:05:49.736Z,1.17
2023-03-12T04:06:49.656Z,1.22
2023-03-12T04:07:49.642Z,1.21
2023-03-12T04:08:49.630Z,1.21
2023-03-12T04:09:49.618Z,1.22
2023-03-12T04:10:49.604Z,1.23
2023-03-12T04:11:49.592Z,1.29
2023-03-12T04:12:49.579Z,1.26
2023-03-12T04:13:49.570Z,1.22
2023-03-12T04:14:49.555Z,1.27
2023-03-12T04:15:49.672Z,1.21
2023-03-12T04:16:49.544Z,1.21
2023-03-12T04:17:49.619Z,1.21
2023-03-12T04:18:49.502Z,1.22
2023-03-12T04:19:49.488Z,1.14
2023-03-12T04:20:49.476Z,1.19
2023-03-12T04:21:49.486Z,1.22
2023-03-12T04:22:49.452Z,1.32
2023-03-12T04:23:49.440Z,1.42
2023-03-12T04:24:49.425Z,1.45
2023-03-12T04:25:49.415Z,1.50
2023-03-12T04:26:49.401Z,1.50
2023-03-12T04:27:49.392Z,1.50
2023-03-12T04:28:49.374Z,1.51
2023-03-12T04:29:49.361Z,1.41
2023-03-12T04:30:49.350Z,1.45
2023-03-12T04:31:49.349Z,1.45
2023-03-12T04:32:49.446Z,1.41
2023-03-12T04:33:49.314Z,1.36
2023-03-12T04:34:49.298Z,1.40
2023-03-12T04:35:49.320Z,1.40
2023-03-12T04:36:49.281Z,1.37
2023-03-12T04:37:49.285Z,1.52
2023-03-12T04:38:49.254Z,1.59
2023-03-12T04:39:49.256Z,1.65
2023-03-12T04:40:49.230Z,1.80
2023-03-12T04:41:49.220Z,1.90
2023-03-12T04:42:49.200Z,1.84
2023-03-12T04:43:49.184Z,1.81
2023-03-12T04:44:49.177Z,1.80
2023-03-12T04:45:49.160Z,1.80
2023-03-12T04:46:49.189Z,1.90
2023-03-12T04:47:49.135Z,1.90
2023-03-12T04:48:49.141Z,1.88
2023-03-12T04:49:49.111Z,1.87
2023-03-12T04:50:49.107Z,1.88
2023-03-12T04:51:49.101Z,1.83
2023-03-12T04:52:49.086Z,1.73
2023-03-12T04:53:49.214Z,1.77
2023-03-12T04:54:49.050Z,1.69
2023-03-12T04:55:49.049Z,1.48
2023-03-12T04:56:49.025Z,1.41
2023-03-12T04:57:49.013Z,1.30
2023-03-12T04:58:49.001Z,1.22
2023-03-12T04:59:48.987Z,1.11
2023-03-12T05:00:48.979Z,1.11
2023-03-12T05:01:48.960Z,1.23
2023-03-12T05:02:48.993Z,1.36
2023-03-12T05:03:49.047Z,1.44
2023-03-12T05:04:48.937Z,1.52
2023-03-12T05:05:48.923Z,1.52
2023-03-12T05:06:48.906Z,1.52
2023-03-12T05:07:48.884Z,1.55
2023-03-12T05:08:48.887Z,1.58
2023-03-12T05:09:48.888Z,1.48
2023-03-12T05:10:48.856Z,1.34
2023-03-12T05:11:48.834Z,1.22
2023-03-12T05:12:48.822Z,1.03
2023-03-12T05:13:48.809Z,0.86
2023-03-12T05:14:48.802Z,0.75
2023-03-12T05:15:48.782Z,0.65
2023-03-12T05:16:48.779Z,0.69
2023-03-12T05:17:48.756Z,0.69
2023-03-12T05:18:48.745Z,0.74
2023-03-12T05:19:48.730Z,0.71
2023-03-12T05:20:48.721Z,0.68
2023-03-12T05:21:48.707Z,0.65
2023-03-12T05:22:48.694Z,0.69
2023-03-12T05:23:48.679Z,0.72
2023-03-12T05:24:48.668Z,0.77
2023-03-12T05:25:48.681Z,0.77
2023-03-12T05:26:48.644Z,0.78
2023-03-12T05:27:48.630Z,0.79
2023-03-12T05:28:48.616Z,0.75
2023-03-12T05:29:48.603Z,0.74
2023-03-12T05:30:48.593Z,0.75
2023-03-12T05:31:48.583Z,0.78
2023-03-12T05:32:48.580Z,0.86
2023-03-12T05:33:48.670Z,0.95
2023-03-12T05:34:48.540Z,1.08
2023-03-12T05:35:48.599Z,1.01
2023-03-12T05:36:48.516Z,0.86
2023-03-12T05:37:48.501Z,0.75
2023-03-12T05:38:48.492Z,0.74
2023-03-12T05:39:48.480Z,0.69
2023-03-12T05:40:48.465Z,0.68
2023-03-12T05:41:48.495Z,0.69
2023-03-12T05:42:48.443Z,0.61
2023-03-12T05:43:48.425Z,0.67
2023-03-12T05:44:48.412Z,0.65
2023-03-12T05:45:48.428Z,0.59
2023-03-12T05:46:48.388Z,0.64
2023-03-12T05:47:48.372Z,0.65
2023-03-12T05:48:48.364Z,0.64
2023-03-12T05:49:48.353Z,0.60
2023-03-12T05:50:48.338Z,0.59
2023-03-12T05:51:48.318Z,0.69
2023-03-12T05:52:48.310Z,0.68
2023-03-12T05:53:48.299Z,0.74
2023-03-12T05:54:48.283Z,0.82
2023-03-12T05:55:48.268Z,0.82
2023-03-12T05:56:48.257Z,0.83
2023-03-12T05:57:48.268Z,0.86
2023-03-12T05:58:48.232Z,0.90
2023-03-12T05:59:48.218Z,0.96
2023-03-12T06:00:48.210Z,1.10
2023-03-12T06:01:48.269Z,1.19
2023-03-12T06:02:48.179Z,1.27
2023-03-12T06:03:48.251Z,1.36
2023-03-12T06:04:48.151Z,1.37
2023-03-12T06:05:48.177Z,1.50
2023-03-12T06:06:48.154Z,1.52
2023-03-12T06:07:48.112Z,1.50
2023-03-12T06:08:48.108Z,1.50
2023-03-12T06:09:48.087Z,1.45
2023-03-12T06:10:48.076Z,1.48
2023-03-12T06:11:48.061Z,1.58
2023-03-12T06:12:48.049Z,1.63
2023-03-12T06:13:48.065Z,1.76
2023-03-12T06:14:48.048Z,1.91
2023-03-12T06:15:48.019Z,2.04
2023-03-12T06:16:48.051Z,2.17
2023-03-12T06:17:47.979Z,2.26
2023-03-12T06:18:47.989Z,2.33
2023-03-12T06:19:47.952Z,2.37
2023-03-12T06:20:47.949Z,2.37
2023-03-12T06:21:47.930Z,2.35
2023-03-12T06:22:47.918Z,2.34
2023-03-12T06:23:47.924Z,2.38
2023-03-12T06:24:47.889Z,2.22
2023-03-12T06:25:47.880Z,1.99
2023-03-12T06:26:47.866Z,1.93
2023-03-12T06:27:47.853Z,1.80
2023-03-12T06:28:47.841Z,1.72
2023-03-12T06:29:47.853Z,1.79
2023-03-12T06:30:47.820Z,1.84
2023-03-12T06:31:47.897Z,1.84
2023-03-12T06:32:47.844Z,1.98
2023-03-12T06:33:47.774Z,2.08
2023-03-12T06:34:47.787Z,2.19
2023-03-12T06:35:47.834Z,2.30
2023-03-12T06:36:47.765Z,2.38
2023-03-12T06:37:47.729Z,2.55
2023-03-12T06:38:47.715Z,2.65
2023-03-12T06:39:47.700Z,2.71
2023-03-12T06:40:47.700Z,2.66
2023-03-12T06:41:47.680Z,2.52
2023-03-12T06:42:47.676Z,2.45
2023-03-12T06:43:47.663Z,2.48
2023-03-12T06:44:47.644Z,2.44
2023-03-12T06:45:47.650Z,2.38
2023-03-12T06:46:47.686Z,2.40
2023-03-12T06:47:47.613Z,2.47
2023-03-12T06:48:47.593Z,2.47
2023-03-12T06:49:47.583Z,2.45
2023-03-12T06:50:47.563Z,2.44
2023-03-12T06:51:47.565Z,2.45
2023-03-12T06:52:47.541Z,2.35
2023-03-12T06:53:47.531Z,2.30
2023-03-12T06:54:47.519Z,2.24
2023-03-12T06:55:47.506Z,2.27
2023-03-12T06:56:47.504Z,2.29
2023-03-12T06:57:47.476Z,2.35
2023-03-12T06:58:47.462Z,2.30
2023-03-12T07:00:47.437Z,2.35
2023-03-12T07:01:47.497Z,2.34
2023-03-12T07:02:47.418Z,2.37
2023-03-12T07:03:47.405Z,2.42
2023-03-12T07:04:47.416Z,2.44
2023-03-12T07:05:47.381Z,2.40
2023-03-12T07:06:47.367Z,2.41
2023-03-12T07:07:47.355Z,2.44
2023-03-12T07:08:47.342Z,2.42
2023-03-12T07:09:47.335Z,2.40
2023-03-12T07:10:47.322Z,2.30
2023-03-12T07:11:47.309Z,2.30
2023-03-12T07:12:47.293Z,2.30
2023-03-12T07:13:47.285Z,2.30
2023-03-12T07:14:47.268Z,2.33
2023-03-12T07:15:47.305Z,2.35
2023-03-12T07:16:47.245Z,2.42
2023-03-12T07:17:47.257Z,2.48
2023-03-12T07:18:47.229Z,2.52
2023-03-12T07:19:49.732Z,2.56
2023-03-12T07:20:47.207Z,2.59
2023-03-12T07:21:47.188Z,2.55
2023-03-12T07:22:47.177Z,2.45
2023-03-12T07:23:47.160Z,2.52
2023-03-12T07:24:47.150Z,2.56
2023-03-12T07:25:47.138Z,2.71
2023-03-12T07:26:47.124Z,2.72
2023-03-12T07:27:47.114Z,2.84
2023-03-12T07:28:47.100Z,2.92
2023-03-12T07:29:47.092Z,2.92
2023-03-12T07:30:47.075Z,2.95
2023-03-12T07:31:47.137Z,2.93
2023-03-12T07:32:47.141Z,2.89
2023-03-12T07:33:47.165Z,2.87
2023-03-12T07:34:47.027Z,2.92
2023-03-12T07:35:48.632Z,2.90
2023-03-12T07:36:47.133Z,2.90
2023-03-12T07:37:46.999Z,2.90
2023-03-12T07:38:46.983Z,2.81
2023-03-12T07:39:47.025Z,2.77
2023-03-12T07:40:46.973Z,2.75
2023-03-12T07:41:46.942Z,2.69
2023-03-12T07:42:46.917Z,2.72
2023-03-12T07:43:47.321Z,2.77
2023-03-12T07:44:47.158Z,2.89
2023-03-12T07:45:47.054Z,2.87
2023-03-12T07:46:47.075Z,2.87
2023-03-12T07:47:47.465Z,2.96
2023-03-12T07:48:47.403Z,2.93
2023-03-12T07:49:47.117Z,2.95
2023-03-12T07:50:46.814Z,2.90
2023-03-12T07:51:46.967Z,2.89
2023-03-12T07:52:46.944Z,2.99
2023-03-12T07:53:46.788Z,3.06
2023-03-12T07:54:46.815Z,3.06
2023-03-12T07:55:46.945Z,3.05
2023-03-12T07:56:46.839Z,3.08
2023-03-12T07:57:46.899Z,3.03
2023-03-12T07:58:46.961Z,3.03
2023-03-12T07:59:46.841Z,3.02
2023-03-12T08:00:46.685Z,3.06
2023-03-12T08:01:47.301Z,3.10
2023-03-12T08:02:46.891Z,3.14
2023-03-12T08:03:46.788Z,3.06
2023-03-12T08:04:46.944Z,3.08
2023-03-12T08:05:46.718Z,3.11
2023-03-12T08:06:46.713Z,3.05
2023-03-12T08:07:46.653Z,3.14
2023-03-12T08:08:46.737Z,3.17
2023-03-12T08:09:46.713Z,3.21
2023-03-12T08:10:46.726Z,3.24
2023-03-12T08:11:46.854Z,3.31
2023-03-12T08:12:46.658Z,3.29
2023-03-12T08:13:46.604Z,3.31
2023-03-12T08:14:46.790Z,3.35
2023-03-12T08:15:46.561Z,3.38
2023-03-12T08:16:46.718Z,3.35
2023-03-12T08:17:46.666Z,3.39
2023-03-12T08:18:46.768Z,3.32
2023-03-12T08:19:46.437Z,3.20
2023-03-12T08:20:46.756Z,3.23
2023-03-12T08:21:46.602Z,3.32
2023-03-12T08:22:46.512Z,3.35
2023-03-12T08:23:46.475Z,3.46
2023-03-12T08:24:46.517Z,3.53
2023-03-12T08:25:46.356Z,3.59
2023-03-12T08:26:46.346Z,3.64
2023-03-12T08:27:46.330Z,3.69
2023-03-12T08:28:46.314Z,3.74
2023-03-12T08:29:46.304Z,3.71
2023-03-12T08:30:46.311Z,3.65
2023-03-12T08:32:03.383Z,3.49
2023-03-12T08:32:46.298Z,3.44
2023-03-12T08:33:46.250Z,3.42
2023-03-12T08:34:46.242Z,3.57
2023-03-12T08:35:46.314Z,3.61
2023-03-12T08:36:46.212Z,3.59
2023-03-12T08:37:46.222Z,3.60
2023-03-12T08:38:46.190Z,3.67
2023-03-12T08:39:46.172Z,3.78
2023-03-12T08:40:46.159Z,3.79
2023-03-12T08:41:46.297Z,3.86
2023-03-12T08:42:46.135Z,3.89
2023-03-12T08:43:46.119Z,3.95
2023-03-12T08:44:46.117Z,3.99
2023-03-12T08:45:46.120Z,4.03
2023-03-12T08:46:46.082Z,4.08
2023-03-12T08:47:46.071Z,4.12
2023-03-12T08:48:46.055Z,4.20
2023-03-12T08:49:46.052Z,4.29
2023-03-12T08:50:46.043Z,4.36
2023-03-12T08:51:46.019Z,4.37
2023-03-12T08:52:46.009Z,4.42
2023-03-12T08:53:46.025Z,4.42
2023-03-12T08:54:45.981Z,4.44
2023-03-12T08:55:45.968Z,4.42
2023-03-12T08:56:45.953Z,4.45
2023-03-12T08:57:45.941Z,4.51
2023-03-12T08:58:45.928Z,4.52
2023-03-12T08:59:45.916Z,4.60
2023-03-12T09:00:45.907Z,4.58
2023-03-12T09:01:45.892Z,4.60
2023-03-12T09:02:45.967Z,4.55
2023-03-12T09:03:45.865Z,4.54
2023-03-12T09:04:45.902Z,4.54
2023-03-12T09:05:45.839Z,4.55
2023-03-12T09:06:45.825Z,4.67
2023-03-12T09:07:45.817Z,4.73
2023-03-12T09:08:45.802Z,4.80
2023-03-12T09:09:45.812Z,4.78
2023-03-12T09:10:45.775Z,4.81
2023-03-12T09:11:45.769Z,4.84
2023-03-12T09:12:45.749Z,4.81
2023-03-12T09:14:09.883Z,4.81
2023-03-12T09:15:45.713Z,4.85
2023-03-12T09:16:45.810Z,4.81
2023-03-12T09:17:45.689Z,4.80
2023-03-12T09:18:45.690Z,4.81
2023-03-12T09:19:45.659Z,4.84
2023-03-12T09:20:45.644Z,4.96
2023-03-12T09:21:45.632Z,4.99
2023-03-12T09:22:45.631Z,5.06
2023-03-12T09:23:45.607Z,5.08
2023-03-12T09:24:45.591Z,5.09
2023-03-12T09:25:45.605Z,5.16
2023-03-12T09:26:45.568Z,5.24
2023-03-12T09:27:45.552Z,5.26
2023-03-12T09:28:45.539Z,5.32
2023-03-12T09:29:57.245Z,5.32
2023-03-12T09:30:45.578Z,5.38
2023-03-12T09:31:45.502Z,5.39
2023-03-12T09:32:45.540Z,5.42
2023-03-12T09:33:45.475Z,5.35
2023-03-12T09:34:45.457Z,5.38
2023-03-12T09:35:45.456Z,5.30
2023-03-12T09:36:45.432Z,5.17
2023-03-12T09:37:45.421Z,5.08
2023-03-12T09:38:45.410Z,5.05
2023-03-12T09:39:45.394Z,5.09
2023-03-12T09:40:45.379Z,5.16
2023-03-12T09:41:45.397Z,5.27
2023-03-12T09:42:47.385Z,5.30
2023-03-12T09:43:45.343Z,5.38
2023-03-12T09:44:45.332Z,5.41
2023-03-12T09:45:45.423Z,5.48
2023-03-12T09:46:45.301Z,5.58
2023-03-12T09:47:45.288Z,5.65
2023-03-12T09:48:47.524Z,5.75
2023-03-12T09:49:45.273Z,5.78
2023-03-12T09:50:45.249Z,5.76
2023-03-12T09:51:45.242Z,5.72
2023-03-12T09:52:45.228Z,5.81
2023-03-12T09:53:45.213Z,5.82
2023-03-12T09:54:47.449Z,5.86
2023-03-12T09:55:45.194Z,5.71
2023-03-12T09:56:45.180Z,5.53
2023-03-12T09:57:45.192Z,5.53
2023-03-12T09:58:45.146Z,5.57
2023-03-12T09:59:45.148Z,5.27
2023-03-12T10:00:47.492Z,5.47
2023-03-12T10:01:45.110Z,5.53
2023-03-12T10:02:45.097Z,5.20
2023-03-12T10:03:45.090Z,5.20
2023-03-12T10:04:58.621Z,5.01
2023-03-12T10:05:45.061Z,4.69
2023-03-12T10:06:47.215Z,4.58
2023-03-12T10:07:45.034Z,4.62
2023-03-12T10:08:45.017Z,4.62
2023-03-12T10:09:45.004Z,4.55
2023-03-12T10:10:44.995Z,4.47
2023-03-12T10:11:44.977Z,4.58
2023-03-12T10:12:47.467Z,4.50
2023-03-12T10:13:45.009Z,4.44
2023-03-12T10:14:44.937Z,4.51
2023-03-12T10:15:45.002Z,4.52
2023-03-12T10:16:44.912Z,4.55
2023-03-12T10:17:44.966Z,4.44
2023-03-12T10:18:48.082Z,4.48
2023-03-12T10:19:44.875Z,4.62
2023-03-12T10:20:44.860Z,4.77
2023-03-12T10:21:44.851Z,4.95
2023-03-12T10:22:44.837Z,5.09
2023-03-12T10:23:44.823Z,5.26
2023-03-12T10:24:44.818Z,5.39
2023-03-12T10:25:44.816Z,5.47
2023-03-12T10:26:44.785Z,5.63
2023-03-12T10:27:44.776Z,5.74
2023-03-12T10:28:44.755Z,5.79
2023-03-12T10:29:45.127Z,5.86
2023-03-12T10:30:44.760Z,5.99
2023-03-12T10:31:44.718Z,6.14
2023-03-12T10:32:44.770Z,6.32
2023-03-12T10:33:44.695Z,6.48
2023-03-12T10:34:44.676Z,6.65
2023-03-12T10:35:44.703Z,6.83
2023-03-12T10:36:44.652Z,6.91
2023-03-12T10:37:44.643Z,6.94
2023-03-12T10:38:44.623Z,6.98
2023-03-12T10:39:44.609Z,7.09
2023-03-12T10:40:44.600Z,7.10
2023-03-12T10:41:44.597Z,7.07
2023-03-12T10:42:44.586Z,7.20
2023-03-12T10:43:44.561Z,7.39
2023-03-12T10:44:44.561Z,7.61
2023-03-12T10:45:44.572Z,7.79
2023-03-12T10:46:44.578Z,7.86
2023-03-12T10:47:44.506Z,7.97
2023-03-12T10:48:44.502Z,8.03
2023-03-12T10:49:44.484Z,8.07
2023-03-12T10:50:44.468Z,8.10
2023-03-12T10:51:44.459Z,8.09
2023-03-12T10:52:44.439Z,8.06
2023-03-12T10:53:44.428Z,7.91
2023-03-12T10:54:44.415Z,7.82
2023-03-12T10:55:44.404Z,7.82
2023-03-12T10:56:44.387Z,7.73
2023-03-12T10:57:44.386Z,7.78
2023-03-12T10:58:44.368Z,7.96
2023-03-12T10:59:44.395Z,8.28
2023-03-12T11:01:44.473Z,8.79
2023-03-12T11:02:44.309Z,8.98
2023-03-12T11:03:44.300Z,9.28
2023-03-12T11:04:44.280Z,9.57
2023-03-12T11:05:44.288Z,10.05
2023-03-12T11:06:44.253Z,10.18
2023-03-12T11:07:44.250Z,9.89
2023-03-12T11:08:44.239Z,10.60
2023-03-12T11:09:44.216Z,11.62
2023-03-12T11:10:44.219Z,12.49
2023-03-12T11:11:44.189Z,12.92
2023-03-12T11:12:44.180Z,13.03
2023-03-12T11:13:44.161Z,12.93
2023-03-12T11:14:44.156Z,12.64
2023-03-12T11:15:44.223Z,12.36
2023-03-12T11:16:44.136Z,12.33
2023-03-12T11:17:44.145Z,12.41
2023-03-12T11:18:44.095Z,12.37
2023-03-12T11:19:44.088Z,12.27
2023-03-12T11:20:44.070Z,12.31
2023-03-12T11:21:44.062Z,12.37
2023-03-12T11:22:44.045Z,12.56
2023-03-12T11:23:44.041Z,12.85
2023-03-12T11:24:44.021Z,12.96
2023-03-12T11:25:44.005Z,13.05
2023-03-12T11:26:44.053Z,13.23
2023-03-12T11:27:43.979Z,13.08
2023-03-12T11:28:43.979Z,12.34
2023-03-12T11:29:44.003Z,12.33
2023-03-12T11:30:44.019Z,12.87
2023-03-12T11:31:45.903Z,13.04
2023-03-12T11:32:43.942Z,13.45
2023-03-12T11:33:43.927Z,13.91
2023-03-12T11:34:43.887Z,14.46
2023-03-12T11:35:43.896Z,14.62
2023-03-12T11:36:43.874Z,15.16
2023-03-12T11:37:43.854Z,15.38
2023-03-12T11:38:43.846Z,15.16
2023-03-12T11:39:43.830Z,15.15
2023-03-12T11:40:43.809Z,14.87
2023-03-12T11:41:43.797Z,14.52
2023-03-12T11:42:43.785Z,14.29
2023-03-12T11:43:44.416Z,13.66
2023-03-12T11:44:43.764Z,13.38
2023-03-12T11:45:43.741Z,13.37
2023-03-12T11:46:43.801Z,13.19
2023-03-12T11:47:43.824Z,12.89
2023-03-12T11:48:43.839Z,12.70
2023-03-12T11:49:43.717Z,12.55
2023-03-12T11:50:43.682Z,12.37
2023-03-12T11:51:43.721Z,12.26
2023-03-12T11:52:43.689Z,12.16
2023-03-12T11:53:43.642Z,12.23
2023-03-12T11:54:43.629Z,12.12
2023-03-12T11:55:43.610Z,11.97
2023-03-12T11:56:43.631Z,11.83
2023-03-12T11:57:43.596Z,11.88
2023-03-12T11:58:43.578Z,11.83
2023-03-12T11:59:43.600Z,11.97
2023-03-12T12:00:44.582Z,12.37
2023-03-12T12:01:43.600Z,13.12
2023-03-12T12:02:43.533Z,13.45
2023-03-12T12:03:43.522Z,13.74
2023-03-12T12:04:43.502Z,13.66
2023-03-12T12:05:43.522Z,13.96
2023-03-12T12:06:43.469Z,13.94
2023-03-12T12:07:43.455Z,13.99
2023-03-12T12:08:43.450Z,13.35
2023-03-12T12:09:43.428Z,13.08
2023-03-12T12:10:43.419Z,12.93
2023-03-12T12:11:43.405Z,13.19
2023-03-12T12:12:43.394Z,13.59
2023-03-12T12:13:43.379Z,13.81
2023-03-12T12:14:43.365Z,13.10
2023-03-12T12:15:43.357Z,12.12
2023-03-12T12:16:43.399Z,12.28
2023-03-12T12:17:43.327Z,12.83
2023-03-12T12:18:43.320Z,13.47
2023-03-12T12:19:43.303Z,13.68
2023-03-12T12:20:43.288Z,13.88
2023-03-12T12:21:43.299Z,14.57
2023-03-12T12:22:43.268Z,13.96
2023-03-12T12:23:43.246Z,14.10
2023-03-12T12:24:43.237Z,13.90
2023-03-12T12:25:43.224Z,13.47
2023-03-12T12:26:43.213Z,13.29
2023-03-12T12:27:43.195Z,13.41
2023-03-12T12:28:43.185Z,13.35
2023-03-12T12:29:43.169Z,13.44
2023-03-12T12:30:43.159Z,13.22
2023-03-12T12:31:43.164Z,12.78
2023-03-12T12:32:43.205Z,12.72
2023-03-12T12:33:43.115Z,12.67
2023-03-12T12:34:43.107Z,12.20
2023-03-12T12:35:43.195Z,12.27
2023-03-12T12:36:43.241Z,12.31
2023-03-12T12:37:43.090Z,12.22
2023-03-12T12:38:43.057Z,12.33
2023-03-12T12:39:44.607Z,11.98
2023-03-12T12:40:43.024Z,11.44
2023-03-12T12:41:43.014Z,11.42
2023-03-12T12:42:42.999Z,11.46
2023-03-12T12:43:42.994Z,11.39
2023-03-12T12:44:42.983Z,11.43
2023-03-12T12:45:43.019Z,11.51
2023-03-12T12:46:42.945Z,11.40
2023-03-12T12:47:42.931Z,11.37
2023-03-12T12:48:42.924Z,11.33
2023-03-12T12:49:42.905Z,11.29
2023-03-12T12:50:42.905Z,11.29
2023-03-12T12:51:42.877Z,11.18
2023-03-12T12:52:42.884Z,11.37
2023-03-12T12:53:42.882Z,11.42
2023-03-12T12:54:42.837Z,11.10
2023-03-12T12:55:42.836Z,11.28
2023-03-12T12:56:42.812Z,11.42
2023-03-12T12:57:42.804Z,11.55
2023-03-12T12:58:42.788Z,11.47
2023-03-12T12:59:42.796Z,11.60
2023-03-12T13:00:42.778Z,11.55
2023-03-12T13:01:42.855Z,11.44
2023-03-12T13:02:42.735Z,11.57
2023-03-12T13:03:42.770Z,11.58
2023-03-12T13:04:42.720Z,11.57
2023-03-12T13:05:42.703Z,11.57
2023-03-12T13:06:42.693Z,11.69
2023-03-12T13:07:42.703Z,11.44
2023-03-12T13:08:42.664Z,11.55
2023-03-12T13:09:42.704Z,11.65
2023-03-12T13:10:52.941Z,11.85
2023-03-12T13:11:42.627Z,11.80
2023-03-12T13:12:42.621Z,11.94
2023-03-12T13:13:42.593Z,12.04
2023-03-12T13:14:42.590Z,12.20
2023-03-12T13:15:42.612Z,12.23
2023-03-12T13:16:42.581Z,12.31
2023-03-12T13:17:42.547Z,12.34
2023-03-12T13:18:42.529Z,12.27
2023-03-12T13:19:45.050Z,12.31
2023-03-12T13:20:42.504Z,12.06
2023-03-12T13:21:42.489Z,12.15
2023-03-12T13:22:42.483Z,12.23
2023-03-12T13:23:42.464Z,12.30
2023-03-12T13:24:42.467Z,12.27
2023-03-12T13:25:42.475Z,12.11
2023-03-12T13:26:42.431Z,12.01
2023-03-12T13:27:42.414Z,12.00
2023-03-12T13:28:44.481Z,11.91
2023-03-12T13:29:42.394Z,11.90
2023-03-12T13:30:42.377Z,12.08
2023-03-12T13:31:42.364Z,11.75
2023-03-12T13:32:42.381Z,11.52
2023-03-12T13:33:42.345Z,11.82
2023-03-12T13:34:42.431Z,12.11
2023-03-12T13:35:42.377Z,12.22
2023-03-12T13:36:42.298Z,12.26
2023-03-12T13:37:42.281Z,12.11
2023-03-12T13:38:42.272Z,12.11
2023-03-12T13:39:42.257Z,12.18
2023-03-12T13:40:42.246Z,12.12
2023-03-12T13:41:42.270Z,12.13
2023-03-12T13:42:42.219Z,12.12
2023-03-12T13:43:42.213Z,12.08
2023-03-12T13:44:42.203Z,12.09
2023-03-12T13:45:42.179Z,11.80
2023-03-12T13:46:42.312Z,11.72
2023-03-12T13:47:42.152Z,11.67
2023-03-12T13:48:42.140Z,11.69
2023-03-12T13:49:42.125Z,11.51
2023-03-12T13:50:42.114Z,11.49
2023-03-12T13:51:42.104Z,11.58
2023-03-12T13:52:42.087Z,11.60
2023-03-12T13:53:42.080Z,11.64
2023-03-12T13:54:42.064Z,11.61
2023-03-12T13:55:42.050Z,11.57
2023-03-12T13:56:42.042Z,11.61
2023-03-12T13:57:42.050Z,11.69
2023-03-12T13:58:42.016Z,11.76
2023-03-12T13:59:41.997Z,11.54
2023-03-12T14:00:41.990Z,11.51
2023-03-12T14:01:42.058Z,11.27
2023-03-12T14:02:41.957Z,11.37
2023-03-12T14:03:41.950Z,11.46
2023-03-12T14:04:42.130Z,11.55
2023-03-12T14:05:41.916Z,11.51
2023-03-12T14:06:41.903Z,11.54
2023-03-12T14:07:41.893Z,11.64
2023-03-12T14:08:41.894Z,11.58
2023-03-12T14:09:41.867Z,11.58
2023-03-12T14:10:41.852Z,11.61
2023-03-12T14:11:41.839Z,11.64
2023-03-12T14:12:41.932Z,11.69
2023-03-12T14:13:41.837Z,11.64
2023-03-12T14:14:41.798Z,11.69
2023-03-12T14:15:41.820Z,11.86
2023-03-12T14:16:41.780Z,11.73
2023-03-12T14:17:41.757Z,11.69
2023-03-12T14:18:41.749Z,11.76
2023-03-12T14:19:41.737Z,11.78